Delmita, Texas
Current Conditions -  °F | °C
As of 11:15 PM on Tuesday 25 Nov 2014 (Local Time) from KEBG Reporting Station
Clear Clear  
Wind Chill: 49°   Ceiling: Unl
Heat Index: 49°   Visibility: 10mi
Dew Point: 41°   Wind: 0mph
Humidity: 73%   Direction: NA
Pressure: 30.32"   Gusts: NA
Location:  26.68°N, 98.41°W
Report Text: KEBG 260515Z AUTO 00000KT 10SM CLR 10/05 A3032 RMK AO2 T00970051
Loading
Personal Weather Stations






























Interactive Weather Map New forecast layout! Learn more

10-Day Weather Forecast

Advertisements
Track Severe Weather on mobile